createdAt,value
2023-04-23T00:05:57.931Z,100546.63
2023-04-23T00:12:40.898Z,100544.78
2023-04-23T00:19:23.193Z,100534.25
2023-04-23T00:26:05.818Z,100534.25
2023-04-23T00:32:48.560Z,100531.56
2023-04-23T00:39:30.842Z,100523.72
2023-04-23T00:46:13.887Z,100519.31
2023-04-23T00:52:56.648Z,100509.75
2023-04-23T00:59:38.951Z,100510.63
2023-04-23T01:06:21.590Z,100510.69
2023-04-23T01:13:04.730Z,100507.22
2023-04-23T01:19:47.108Z,100504.72
2023-04-23T01:26:29.491Z,100501.25
2023-04-23T01:33:11.803Z,100499.56
2023-04-23T01:39:54.029Z,100495.19
2023-04-23T01:46:36.937Z,100496.13
2023-04-23T01:53:19.537Z,100492.66
2023-04-23T02:00:11.468Z,100483.09
2023-04-23T02:06:57.010Z,100478.75
2023-04-23T02:13:39.143Z,100470.03
2023-04-23T02:20:22.188Z,100469.22
2023-04-23T02:27:04.879Z,100461.41
2023-04-23T02:33:47.216Z,100462.34
2023-04-23T02:40:29.698Z,100458.00
2023-04-23T02:47:11.882Z,100452.88
2023-04-23T02:53:54.432Z,100450.31
2023-04-23T03:00:36.712Z,100446.91
2023-04-23T03:07:19.013Z,100441.78
2023-04-23T03:14:01.206Z,100444.47
2023-04-23T03:20:43.340Z,100427.03
2023-04-23T03:27:25.513Z,100423.69
2023-04-23T03:34:07.807Z,100422.00
2023-04-23T03:40:51.509Z,100419.47
2023-04-23T03:47:33.950Z,100422.97
2023-04-23T03:54:16.481Z,100417.72
2023-04-23T04:01:18.308Z,100420.31
2023-04-23T04:08:01.691Z,100420.22
2023-04-23T04:14:46.004Z,100407.81
2023-04-23T04:21:28.444Z,100410.34
2023-04-23T04:28:11.841Z,100403.19
2023-04-23T04:34:54.226Z,100398.69
2023-04-23T04:41:37.446Z,100403.75
2023-04-23T04:48:20.110Z,100400.91
2023-04-23T04:55:02.530Z,100403.31
2023-04-23T05:01:44.828Z,100397.81
2023-04-23T05:08:27.183Z,100391.38
2023-04-23T05:15:13.390Z,100386.72
2023-04-23T05:21:55.662Z,100381.13
2023-04-23T05:28:37.889Z,100375.56
2023-04-23T05:35:20.253Z,100377.00
2023-04-23T05:42:03.119Z,100383.63
2023-04-23T05:48:45.346Z,100378.84
2023-04-23T05:55:27.836Z,100373.91
2023-04-23T06:02:11.382Z,100373.31
2023-04-23T06:08:53.637Z,100366.50
2023-04-23T06:15:35.808Z,100364.00
2023-04-23T06:22:18.035Z,100354.47
2023-04-23T06:29:00.127Z,100347.53
2023-04-23T06:35:46.837Z,100352.03
2023-04-23T06:42:29.449Z,100351.13
2023-04-23T06:49:27.510Z,100348.31
2023-04-23T06:56:09.915Z,100346.50
2023-04-23T07:02:52.393Z,100341.00
2023-04-23T07:09:34.645Z,100331.97
2023-04-23T07:16:17.047Z,100336.28
2023-04-23T07:22:59.806Z,100330.59
2023-04-23T07:29:41.914Z,100333.75
2023-04-23T07:36:24.077Z,100323.56
2023-04-23T07:43:06.391Z,100314.25
2023-04-23T07:49:48.568Z,100303.91
2023-04-23T07:56:32.526Z,100293.56
2023-04-23T08:03:14.851Z,100296.50
2023-04-23T08:10:02.724Z,100289.44
2023-04-23T08:16:45.290Z,100285.78
2023-04-23T08:23:28.050Z,100273.44
2023-04-23T08:30:10.606Z,100274.53
2023-04-23T08:36:52.721Z,100261.25
2023-04-23T08:43:57.489Z,100258.44
2023-04-23T08:50:43.507Z,100257.97
2023-04-23T08:57:26.245Z,100242.56
2023-04-23T09:04:10.136Z,100236.16
2023-04-23T09:10:52.316Z,100228.97
2023-04-23T09:17:36.178Z,100229.31
2023-04-23T09:24:19.004Z,100231.41
2023-04-23T09:31:01.202Z,100228.81
2023-04-23T09:37:49.202Z,100228.78
2023-04-23T09:44:35.259Z,100223.63
2023-04-23T09:51:17.499Z,100207.72
2023-04-23T09:58:00.358Z,100200.03
2023-04-23T10:04:42.884Z,100194.78
2023-04-23T10:11:25.743Z,100192.53
2023-04-23T10:18:08.295Z,100172.38
2023-04-23T10:24:57.226Z,100164.44
2023-04-23T10:31:40.686Z,100156.56
2023-04-23T10:38:23.970Z,100148.94
2023-04-23T10:45:25.690Z,100136.41
2023-04-23T10:52:21.165Z,100134.34
2023-04-23T10:59:08.711Z,100133.72
2023-04-23T11:05:50.830Z,100123.91
2023-04-23T11:12:33.554Z,100110.88
2023-04-23T11:19:19.916Z,100116.78
2023-04-23T11:26:05.029Z,100109.56
2023-04-23T11:32:53.124Z,100104.63
2023-04-23T11:39:35.579Z,100082.53
2023-04-23T11:46:17.800Z,100090.53
2023-04-23T11:53:08.968Z,100090.00
2023-04-23T11:59:53.848Z,100091.84
2023-04-23T12:06:36.303Z,100095.25
2023-04-23T12:13:27.392Z,100071.84
2023-04-23T12:20:19.504Z,100083.72
2023-04-23T12:27:02.994Z,100081.72
2023-04-23T12:33:45.325Z,100064.09
2023-04-23T12:40:27.469Z,100056.69
2023-04-23T12:47:15.353Z,100049.69
2023-04-23T12:53:57.719Z,100045.94
2023-04-23T13:00:40.206Z,100038.69
2023-04-23T13:07:22.471Z,100035.38
2023-04-23T13:14:05.547Z,100029.84
2023-04-23T13:20:47.657Z,100018.78
2023-04-23T13:27:31.117Z,100015.06
2023-04-23T13:34:13.577Z,100004.38
2023-04-23T13:40:55.861Z,99996.25
2023-04-23T13:47:38.058Z,99982.22
2023-04-23T13:54:20.822Z,99980.97
2023-04-23T14:01:04.171Z,99974.63
2023-04-23T14:07:46.821Z,99956.97
2023-04-23T14:14:29.244Z,99960.59
2023-04-23T14:21:11.650Z,99958.72
2023-04-23T14:28:02.259Z,99951.41
2023-04-23T14:34:45.209Z,99957.56
2023-04-23T14:41:27.597Z,99945.44
2023-04-23T14:48:10.610Z,99936.94
2023-04-23T14:54:55.977Z,99935.34
2023-04-23T15:01:38.744Z,99934.34
2023-04-23T15:08:21.415Z,99923.06
2023-04-23T15:15:05.028Z,99922.94
2023-04-23T15:21:48.078Z,99917.50
2023-04-23T15:28:30.312Z,99918.16
2023-04-23T15:35:12.510Z,99919.09
2023-04-23T15:41:54.762Z,99914.38
2023-04-23T15:48:37.127Z,99907.31
2023-04-23T15:55:19.403Z,99904.06
2023-04-23T16:02:03.059Z,99895.97
2023-04-23T16:08:45.324Z,99891.66
2023-04-23T16:15:28.830Z,99888.38
2023-04-23T16:22:11.535Z,99887.88
2023-04-23T16:29:05.555Z,99886.47
2023-04-23T16:35:54.269Z,99876.44
2023-04-23T16:42:36.502Z,99891.84
2023-04-23T16:49:18.740Z,99902.84
2023-04-23T16:56:00.907Z,99919.53
2023-04-23T17:02:43.449Z,99935.16
2023-04-23T17:09:25.663Z,99944.31
2023-04-23T17:16:07.836Z,99959.66
2023-04-23T17:22:50.056Z,99951.94
2023-04-23T17:29:32.461Z,99948.09
2023-04-23T17:36:16.065Z,99950.44
2023-04-23T17:42:58.174Z,99954.31
2023-04-23T17:49:40.647Z,99963.91
2023-04-23T17:56:23.055Z,99958.44
2023-04-23T18:03:07.394Z,99961.47
2023-04-23T18:09:49.945Z,99970.63
2023-04-23T18:16:32.204Z,99979.53
2023-04-23T18:23:14.716Z,99991.69
2023-04-23T18:29:58.794Z,99984.28
2023-04-23T18:36:44.730Z,99999.97
2023-04-23T18:43:28.573Z,100000.19
2023-04-23T18:50:43.797Z,99994.84
2023-04-23T18:57:26.631Z,99989.31
2023-04-23T19:04:09.940Z,100004.47
2023-04-23T19:10:52.218Z,100018.84
2023-04-23T19:17:35.588Z,100027.91
2023-04-23T19:24:17.901Z,100029.25
2023-04-23T19:31:00.071Z,100020.69
2023-04-23T19:37:42.330Z,100034.41
2023-04-23T19:44:24.549Z,100025.94
2023-04-23T19:51:06.845Z,100030.31
2023-04-23T19:57:49.052Z,100030.13
2023-04-23T20:04:31.573Z,100040.56
2023-04-23T20:11:13.990Z,100040.19
2023-04-23T20:17:56.372Z,100046.16
2023-04-23T20:24:40.363Z,100050.38
2023-04-23T20:31:22.528Z,100047.50
2023-04-23T20:38:04.792Z,100051.22
2023-04-23T20:44:47.174Z,100040.53
2023-04-23T20:51:29.825Z,100038.22
2023-04-23T20:58:12.115Z,100036.53
2023-04-23T21:04:55.032Z,100025.63
2023-04-23T21:11:37.221Z,100029.81
2023-04-23T21:18:19.733Z,100026.78
2023-04-23T21:25:03.687Z,100028.13
2023-04-23T21:31:48.549Z,100022.47
2023-04-23T21:38:30.906Z,100018.41
2023-04-23T21:45:13.425Z,100016.28
2023-04-23T21:51:56.103Z,100015.81
2023-04-23T21:58:38.258Z,100011.00
2023-04-23T22:05:22.166Z,100019.53
2023-04-23T22:12:05.117Z,100009.63
2023-04-23T22:18:47.763Z,99995.16
2023-04-23T22:25:30.000Z,99990.44
2023-04-23T22:32:12.259Z,99993.50
2023-04-23T22:38:54.951Z,99994.00
2023-04-23T22:45:37.110Z,99996.31
2023-04-23T22:52:19.329Z,99997.88
2023-04-23T22:59:05.019Z,99994.81
2023-04-23T23:05:47.754Z,99999.63
2023-04-23T23:12:29.900Z,99991.09
2023-04-23T23:19:12.658Z,99984.25
2023-04-23T23:25:55.055Z,99990.75
2023-04-23T23:32:37.404Z,99972.50
2023-04-23T23:39:20.535Z,99963.91
2023-04-23T23:46:02.857Z,99959.63
2023-04-23T23:52:45.016Z,99970.38
2023-04-23T23:59:27.544Z,99968.66
